sensor_id;sensor_type;location;lat;lon;timestamp;temperature;humidity
68609;SHT31;55581;46.718;7.690;2023-03-01T00:01:17;1.39;74.23
68609;SHT31;55581;46.718;7.690;2023-03-01T00:03:46;1.43;74.55
68609;SHT31;55581;46.718;7.690;2023-03-01T00:06:14;1.44;73.87
68609;SHT31;55581;46.718;7.690;2023-03-01T00:08:44;1.40;74.34
68609;SHT31;55581;46.718;7.690;2023-03-01T00:11:16;1.40;74.35
68609;SHT31;55581;46.718;7.690;2023-03-01T00:13:45;1.43;74.19
68609;SHT31;55581;46.718;7.690;2023-03-01T00:16:14;1.33;74.18
68609;SHT31;55581;46.718;7.690;2023-03-01T00:18:40;1.42;74.44
68609;SHT31;55581;46.718;7.690;2023-03-01T00:21:06;1.36;74.28
68609;SHT31;55581;46.718;7.690;2023-03-01T00:23:33;1.30;74.64
68609;SHT31;55581;46.718;7.690;2023-03-01T00:25:59;1.37;74.54
68609;SHT31;55581;46.718;7.690;2023-03-01T00:28:24;1.32;74.26
68609;SHT31;55581;46.718;7.690;2023-03-01T00:30:50;1.22;74.27
68609;SHT31;55581;46.718;7.690;2023-03-01T00:33:15;1.29;74.37
68609;SHT31;55581;46.718;7.690;2023-03-01T00:35:41;1.27;74.67
68609;SHT31;55581;46.718;7.690;2023-03-01T00:38:06;1.15;74.67
68609;SHT31;55581;46.718;7.690;2023-03-01T00:40:35;1.22;74.61
68609;SHT31;55581;46.718;7.690;2023-03-01T00:43:02;1.25;74.24
68609;SHT31;55581;46.718;7.690;2023-03-01T00:45:27;1.23;74.63
68609;SHT31;55581;46.718;7.690;2023-03-01T00:47:55;1.25;74.63
68609;SHT31;55581;46.718;7.690;2023-03-01T00:50:20;1.30;74.90
68609;SHT31;55581;46.718;7.690;2023-03-01T00:52:46;1.25;74.69
68609;SHT31;55581;46.718;7.690;2023-03-01T00:55:11;1.27;74.92
68609;SHT31;55581;46.718;7.690;2023-03-01T00:57:40;1.32;74.82
68609;SHT31;55581;46.718;7.690;2023-03-01T01:00:06;1.37;74.73
68609;SHT31;55581;46.718;7.690;2023-03-01T01:02:33;1.43;74.84
68609;SHT31;55581;46.718;7.690;2023-03-01T01:04:59;1.39;74.49
68609;SHT31;55581;46.718;7.690;2023-03-01T01:07:25;1.37;74.31
68609;SHT31;55581;46.718;7.690;2023-03-01T01:09:52;1.33;73.78
68609;SHT31;55581;46.718;7.690;2023-03-01T01:12:18;1.40;73.69
68609;SHT31;55581;46.718;7.690;2023-03-01T01:14:43;1.33;74.15
68609;SHT31;55581;46.718;7.690;2023-03-01T01:17:09;1.25;73.89
68609;SHT31;55581;46.718;7.690;2023-03-01T01:19:34;1.23;74.03
68609;SHT31;55581;46.718;7.690;2023-03-01T01:22:02;1.22;74.09
68609;SHT31;55581;46.718;7.690;2023-03-01T01:24:28;1.26;73.92
68609;SHT31;55581;46.718;7.690;2023-03-01T01:26:53;1.33;74.05
68609;SHT31;55581;46.718;7.690;2023-03-01T01:29:19;1.33;74.02
68609;SHT31;55581;46.718;7.690;2023-03-01T01:31:44;1.37;73.95
68609;SHT31;55581;46.718;7.690;2023-03-01T01:34:16;1.40;73.42
68609;SHT31;55581;46.718;7.690;2023-03-01T01:36:42;1.37;73.90
68609;SHT31;55581;46.718;7.690;2023-03-01T01:39:07;1.36;74.03
68609;SHT31;55581;46.718;7.690;2023-03-01T01:41:33;1.42;74.44
68609;SHT31;55581;46.718;7.690;2023-03-01T01:47:05;1.36;74.23
68609;SHT31;55581;46.718;7.690;2023-03-01T01:49:32;1.39;74.02
68609;SHT31;55581;46.718;7.690;2023-03-01T01:52:22;1.33;73.65
68609;SHT31;55581;46.718;7.690;2023-03-01T01:55:19;1.36;73.79
68609;SHT31;55581;46.718;7.690;2023-03-01T01:57:53;1.36;73.77
68609;SHT31;55581;46.718;7.690;2023-03-01T02:00:25;1.30;74.27
68609;SHT31;55581;46.718;7.690;2023-03-01T02:03:11;1.30;74.13
68609;SHT31;55581;46.718;7.690;2023-03-01T02:08:11;1.25;74.30
68609;SHT31;55581;46.718;7.690;2023-03-01T02:10:38;1.27;74.21
68609;SHT31;55581;46.718;7.690;2023-03-01T02:13:03;1.26;73.88
68609;SHT31;55581;46.718;7.690;2023-03-01T02:15:38;1.32;73.53
68609;SHT31;55581;46.718;7.690;2023-03-01T02:18:05;1.25;74.04
68609;SHT31;55581;46.718;7.690;2023-03-01T02:23:22;1.19;74.03
68609;SHT31;55581;46.718;7.690;2023-03-01T02:25:58;1.23;73.93
68609;SHT31;55581;46.718;7.690;2023-03-01T02:28:45;1.22;73.61
68609;SHT31;55581;46.718;7.690;2023-03-01T02:31:14;1.23;74.13
68609;SHT31;55581;46.718;7.690;2023-03-01T02:34:00;1.33;73.84
68609;SHT31;55581;46.718;7.690;2023-03-01T02:36:31;1.29;74.25
68609;SHT31;55581;46.718;7.690;2023-03-01T02:38:58;1.27;73.71
68609;SHT31;55581;46.718;7.690;2023-03-01T02:41:28;1.27;73.91
68609;SHT31;55581;46.718;7.690;2023-03-01T02:43:56;1.26;74.48
68609;SHT31;55581;46.718;7.690;2023-03-01T02:46:25;1.29;74.15
68609;SHT31;55581;46.718;7.690;2023-03-01T02:48:54;1.29;73.69
68609;SHT31;55581;46.718;7.690;2023-03-01T02:51:47;1.23;74.47
68609;SHT31;55581;46.718;7.690;2023-03-01T02:56:49;1.25;74.71
68609;SHT31;55581;46.718;7.690;2023-03-01T02:59:16;1.26;74.42
68609;SHT31;55581;46.718;7.690;2023-03-01T03:01:43;1.25;74.60
68609;SHT31;55581;46.718;7.690;2023-03-01T03:04:10;1.29;74.26
68609;SHT31;55581;46.718;7.690;2023-03-01T03:06:37;1.33;74.34
68609;SHT31;55581;46.718;7.690;2023-03-01T03:09:05;1.40;74.10
68609;SHT31;55581;46.718;7.690;2023-03-01T03:11:30;1.37;74.35
68609;SHT31;55581;46.718;7.690;2023-03-01T03:13:57;1.39;74.02
68609;SHT31;55581;46.718;7.690;2023-03-01T03:16:23;1.39;74.15
68609;SHT31;55581;46.718;7.690;2023-03-01T03:18:50;1.30;74.43
68609;SHT31;55581;46.718;7.690;2023-03-01T03:21:15;1.33;73.96
68609;SHT31;55581;46.718;7.690;2023-03-01T03:23:41;1.32;74.06
68609;SHT31;55581;46.718;7.690;2023-03-01T03:26:07;1.32;74.30
68609;SHT31;55581;46.718;7.690;2023-03-01T03:28:35;1.30;74.49
68609;SHT31;55581;46.718;7.690;2023-03-01T03:31:01;1.23;74.72
68609;SHT31;55581;46.718;7.690;2023-03-01T03:33:30;1.19;74.91
68609;SHT31;55581;46.718;7.690;2023-03-01T03:35:56;1.18;74.65
68609;SHT31;55581;46.718;7.690;2023-03-01T03:38:21;1.20;74.28
68609;SHT31;55581;46.718;7.690;2023-03-01T03:40:55;1.09;74.30
68609;SHT31;55581;46.718;7.690;2023-03-01T03:43:26;1.13;74.31
68609;SHT31;55581;46.718;7.690;2023-03-01T03:45:51;1.13;74.24
68609;SHT31;55581;46.718;7.690;2023-03-01T03:48:17;1.15;74.55
68609;SHT31;55581;46.718;7.690;2023-03-01T03:50:49;1.13;74.25
68609;SHT31;55581;46.718;7.690;2023-03-01T03:53:15;1.20;74.09
68609;SHT31;55581;46.718;7.690;2023-03-01T03:55:41;1.22;74.11
68609;SHT31;55581;46.718;7.690;2023-03-01T03:58:08;1.26;73.75
68609;SHT31;55581;46.718;7.690;2023-03-01T04:00:39;1.27;73.80
68609;SHT31;55581;46.718;7.690;2023-03-01T04:03:06;1.20;74.65
68609;SHT31;55581;46.718;7.690;2023-03-01T04:05:31;1.20;74.40
68609;SHT31;55581;46.718;7.690;2023-03-01T04:07:57;1.16;74.45
68609;SHT31;55581;46.718;7.690;2023-03-01T04:10:53;1.19;73.37
68609;SHT31;55581;46.718;7.690;2023-03-01T04:13:22;1.23;73.82
68609;SHT31;55581;46.718;7.690;2023-03-01T04:15:51;1.13;74.40
68609;SHT31;55581;46.718;7.690;2023-03-01T04:18:18;1.09;74.70
68609;SHT31;55581;46.718;7.690;2023-03-01T04:20:46;1.09;74.63
68609;SHT31;55581;46.718;7.690;2023-03-01T04:23:14;1.08;74.50
68609;SHT31;55581;46.718;7.690;2023-03-01T04:25:52;1.09;74.57
68609;SHT31;55581;46.718;7.690;2023-03-01T04:28:27;1.15;73.91
68609;SHT31;55581;46.718;7.690;2023-03-01T04:30:54;1.06;74.42
68609;SHT31;55581;46.718;7.690;2023-03-01T04:33:20;1.09;74.85
68609;SHT31;55581;46.718;7.690;2023-03-01T04:35:46;1.12;74.87
68609;SHT31;55581;46.718;7.690;2023-03-01T04:38:14;1.08;75.05
68609;SHT31;55581;46.718;7.690;2023-03-01T04:40:40;1.09;74.92
68609;SHT31;55581;46.718;7.690;2023-03-01T04:43:08;1.18;74.39
68609;SHT31;55581;46.718;7.690;2023-03-01T04:45:36;1.16;74.75
68609;SHT31;55581;46.718;7.690;2023-03-01T04:48:03;1.18;74.84
68609;SHT31;55581;46.718;7.690;2023-03-01T04:50:29;1.20;74.71
68609;SHT31;55581;46.718;7.690;2023-03-01T04:52:55;1.20;74.50
68609;SHT31;55581;46.718;7.690;2023-03-01T04:55:27;1.26;74.26
68609;SHT31;55581;46.718;7.690;2023-03-01T04:57:53;1.20;74.68
68609;SHT31;55581;46.718;7.690;2023-03-01T05:00:19;1.13;73.88
68609;SHT31;55581;46.718;7.690;2023-03-01T05:02:50;1.15;74.43
68609;SHT31;55581;46.718;7.690;2023-03-01T05:05:28;1.12;74.58
68609;SHT31;55581;46.718;7.690;2023-03-01T05:07:59;1.08;74.54
68609;SHT31;55581;46.718;7.690;2023-03-01T05:10:30;1.05;75.09
68609;SHT31;55581;46.718;7.690;2023-03-01T05:12:57;1.09;74.44
68609;SHT31;55581;46.718;7.690;2023-03-01T05:15:24;1.15;74.36
68609;SHT31;55581;46.718;7.690;2023-03-01T05:17:54;1.15;74.21
68609;SHT31;55581;46.718;7.690;2023-03-01T05:20:20;1.19;74.67
68609;SHT31;55581;46.718;7.690;2023-03-01T05:22:49;1.18;74.35
68609;SHT31;55581;46.718;7.690;2023-03-01T05:25:15;1.13;74.13
68609;SHT31;55581;46.718;7.690;2023-03-01T05:27:40;1.15;73.53
68609;SHT31;55581;46.718;7.690;2023-03-01T05:30:06;1.15;72.97
68609;SHT31;55581;46.718;7.690;2023-03-01T05:32:49;1.09;73.71
68609;SHT31;55581;46.718;7.690;2023-03-01T05:35:17;1.16;73.78
68609;SHT31;55581;46.718;7.690;2023-03-01T05:37:43;1.13;74.31
68609;SHT31;55581;46.718;7.690;2023-03-01T05:40:12;1.13;74.54
68609;SHT31;55581;46.718;7.690;2023-03-01T05:42:48;1.02;74.40
68609;SHT31;55581;46.718;7.690;2023-03-01T05:45:17;1.02;74.51
68609;SHT31;55581;46.718;7.690;2023-03-01T05:47:46;1.03;74.23
68609;SHT31;55581;46.718;7.690;2023-03-01T05:50:17;1.05;74.36
68609;SHT31;55581;46.718;7.690;2023-03-01T05:52:50;1.01;73.06
68609;SHT31;55581;46.718;7.690;2023-03-01T05:55:18;1.05;73.81
68609;SHT31;55581;46.718;7.690;2023-03-01T05:57:43;1.18;73.64
68609;SHT31;55581;46.718;7.690;2023-03-01T06:00:10;1.16;74.78
68609;SHT31;55581;46.718;7.690;2023-03-01T06:02:40;1.19;74.68
68609;SHT31;55581;46.718;7.690;2023-03-01T06:05:08;1.22;74.31
68609;SHT31;55581;46.718;7.690;2023-03-01T06:07:33;1.16;74.03
68609;SHT31;55581;46.718;7.690;2023-03-01T06:09:59;1.08;74.32
68609;SHT31;55581;46.718;7.690;2023-03-01T06:12:24;1.13;74.41
68609;SHT31;55581;46.718;7.690;2023-03-01T06:14:50;1.12;73.86
68609;SHT31;55581;46.718;7.690;2023-03-01T06:17:15;1.09;74.05
68609;SHT31;55581;46.718;7.690;2023-03-01T06:19:41;1.16;74.11
68609;SHT31;55581;46.718;7.690;2023-03-01T06:22:06;1.18;74.80
68609;SHT31;55581;46.718;7.690;2023-03-01T06:24:34;1.18;74.79
68609;SHT31;55581;46.718;7.690;2023-03-01T06:26:59;1.25;74.80
68609;SHT31;55581;46.718;7.690;2023-03-01T06:29:25;1.22;74.74
68609;SHT31;55581;46.718;7.690;2023-03-01T06:31:50;1.15;74.34
68609;SHT31;55581;46.718;7.690;2023-03-01T06:34:16;1.20;74.14
68609;SHT31;55581;46.718;7.690;2023-03-01T06:36:41;1.22;74.13
68609;SHT31;55581;46.718;7.690;2023-03-01T06:39:09;1.19;74.20
68609;SHT31;55581;46.718;7.690;2023-03-01T06:41:34;1.30;74.03
68609;SHT31;55581;46.718;7.690;2023-03-01T06:44:00;1.29;73.56
68609;SHT31;55581;46.718;7.690;2023-03-01T06:46:25;1.26;74.33
68609;SHT31;55581;46.718;7.690;2023-03-01T06:48:51;1.22;74.22
68609;SHT31;55581;46.718;7.690;2023-03-01T06:51:16;1.29;74.44
68609;SHT31;55581;46.718;7.690;2023-03-01T06:53:42;1.29;74.05
68609;SHT31;55581;46.718;7.690;2023-03-01T06:56:09;1.32;73.46
68609;SHT31;55581;46.718;7.690;2023-03-01T06:58:34;1.30;73.90
68609;SHT31;55581;46.718;7.690;2023-03-01T07:01:05;1.27;73.76
68609;SHT31;55581;46.718;7.690;2023-03-01T07:03:30;1.27;73.68
68609;SHT31;55581;46.718;7.690;2023-03-01T07:05:56;1.25;73.82
68609;SHT31;55581;46.718;7.690;2023-03-01T07:08:24;1.26;73.63
68609;SHT31;55581;46.718;7.690;2023-03-01T07:10:55;1.26;73.44
68609;SHT31;55581;46.718;7.690;2023-03-01T07:13:23;1.10;73.00
68609;SHT31;55581;46.718;7.690;2023-03-01T07:15:48;1.10;73.21
68609;SHT31;55581;46.718;7.690;2023-03-01T07:18:14;1.15;73.22
68609;SHT31;55581;46.718;7.690;2023-03-01T07:20:39;1.16;73.36
68609;SHT31;55581;46.718;7.690;2023-03-01T07:23:05;1.23;73.59
68609;SHT31;55581;46.718;7.690;2023-03-01T07:25:30;1.29;73.51
68609;SHT31;55581;46.718;7.690;2023-03-01T07:27:57;1.18;72.82
68609;SHT31;55581;46.718;7.690;2023-03-01T07:30:22;1.19;73.26
68609;SHT31;55581;46.718;7.690;2023-03-01T07:32:56;1.22;73.22
68609;SHT31;55581;46.718;7.690;2023-03-01T07:35:26;1.22;73.38
68609;SHT31;55581;46.718;7.690;2023-03-01T07:37:52;1.33;74.00
68609;SHT31;55581;46.718;7.690;2023-03-01T07:40:17;1.40;72.92
68609;SHT31;55581;46.718;7.690;2023-03-01T07:42:43;1.42;73.32
68609;SHT31;55581;46.718;7.690;2023-03-01T07:45:09;1.39;72.43
68609;SHT31;55581;46.718;7.690;2023-03-01T07:47:34;1.40;72.96
68609;SHT31;55581;46.718;7.690;2023-03-01T07:50:02;1.42;72.41
68609;SHT31;55581;46.718;7.690;2023-03-01T07:52:31;1.51;72.26
68609;SHT31;55581;46.718;7.690;2023-03-01T07:54:59;1.56;72.38
68609;SHT31;55581;46.718;7.690;2023-03-01T07:57:24;1.53;72.73
68609;SHT31;55581;46.718;7.690;2023-03-01T07:59:52;1.51;73.25
68609;SHT31;55581;46.718;7.690;2023-03-01T08:02:18;1.51;72.81
68609;SHT31;55581;46.718;7.690;2023-03-01T08:04:43;1.57;73.23
68609;SHT31;55581;46.718;7.690;2023-03-01T08:07:08;1.44;72.99
68609;SHT31;55581;46.718;7.690;2023-03-01T08:09:35;1.48;73.34
68609;SHT31;55581;46.718;7.690;2023-03-01T08:12:01;1.57;72.67
68609;SHT31;55581;46.718;7.690;2023-03-01T08:14:26;1.60;73.25
68609;SHT31;55581;46.718;7.690;2023-03-01T08:16:54;1.60;72.58
68609;SHT31;55581;46.718;7.690;2023-03-01T08:19:20;1.57;73.00
68609;SHT31;55581;46.718;7.690;2023-03-01T08:21:48;1.68;74.66
68609;SHT31;55581;46.718;7.690;2023-03-01T08:24:13;1.68;71.93
68609;SHT31;55581;46.718;7.690;2023-03-01T08:26:39;1.67;72.06
68609;SHT31;55581;46.718;7.690;2023-03-01T08:29:04;1.64;71.63
68609;SHT31;55581;46.718;7.690;2023-03-01T08:31:33;1.56;72.14
68609;SHT31;55581;46.718;7.690;2023-03-01T08:34:05;1.46;71.67
68609;SHT31;55581;46.718;7.690;2023-03-01T08:36:39;1.47;72.46
68609;SHT31;55581;46.718;7.690;2023-03-01T08:39:06;1.50;72.41
68609;SHT31;55581;46.718;7.690;2023-03-01T08:41:31;1.50;72.42
68609;SHT31;55581;46.718;7.690;2023-03-01T08:43:57;1.56;72.75
68609;SHT31;55581;46.718;7.690;2023-03-01T08:46:30;1.64;71.80
68609;SHT31;55581;46.718;7.690;2023-03-01T08:48:56;1.73;71.63
68609;SHT31;55581;46.718;7.690;2023-03-01T08:51:22;1.81;71.63
68609;SHT31;55581;46.718;7.690;2023-03-01T08:53:48;1.82;71.70
68609;SHT31;55581;46.718;7.690;2023-03-01T08:56:14;1.73;71.51
68609;SHT31;55581;46.718;7.690;2023-03-01T08:58:40;1.78;71.82
68609;SHT31;55581;46.718;7.690;2023-03-01T09:01:09;1.77;71.70
68609;SHT31;55581;46.718;7.690;2023-03-01T09:03:35;1.81;71.61
68609;SHT31;55581;46.718;7.690;2023-03-01T09:06:01;1.94;71.37
68609;SHT31;55581;46.718;7.690;2023-03-01T09:08:27;1.89;71.09
68609;SHT31;55581;46.718;7.690;2023-03-01T09:10:55;1.94;70.89
68609;SHT31;55581;46.718;7.690;2023-03-01T09:13:21;1.94;70.52
68609;SHT31;55581;46.718;7.690;2023-03-01T09:15:48;1.98;70.94
68609;SHT31;55581;46.718;7.690;2023-03-01T09:18:14;1.98;70.39
68609;SHT31;55581;46.718;7.690;2023-03-01T09:20:39;2.08;70.06
68609;SHT31;55581;46.718;7.690;2023-03-01T09:23:05;2.08;70.19
68609;SHT31;55581;46.718;7.690;2023-03-01T09:25:30;2.08;69.92
68609;SHT31;55581;46.718;7.690;2023-03-01T09:27:58;2.09;68.67
68609;SHT31;55581;46.718;7.690;2023-03-01T09:30:23;1.99;69.76
68609;SHT31;55581;46.718;7.690;2023-03-01T09:32:49;2.11;69.75
68609;SHT31;55581;46.718;7.690;2023-03-01T09:35:14;2.15;69.18
68609;SHT31;55581;46.718;7.690;2023-03-01T09:37:42;2.12;70.15
68609;SHT31;55581;46.718;7.690;2023-03-01T09:40:16;2.22;70.31
68609;SHT31;55581;46.718;7.690;2023-03-01T09:43:02;2.16;69.96
68609;SHT31;55581;46.718;7.690;2023-03-01T09:45:40;2.19;70.14
68609;SHT31;55581;46.718;7.690;2023-03-01T09:48:13;2.25;70.03
68609;SHT31;55581;46.718;7.690;2023-03-01T09:50:43;2.25;69.30
68609;SHT31;55581;46.718;7.690;2023-03-01T09:53:33;2.36;69.71
68609;SHT31;55581;46.718;7.690;2023-03-01T09:56:12;2.39;68.72
68609;SHT31;55581;46.718;7.690;2023-03-01T10:02:02;2.49;67.91
68609;SHT31;55581;46.718;7.690;2023-03-01T10:04:45;2.53;68.26
68609;SHT31;55581;46.718;7.690;2023-03-01T10:09:44;2.44;68.19
68609;SHT31;55581;46.718;7.690;2023-03-01T10:12:16;2.51;68.13
68609;SHT31;55581;46.718;7.690;2023-03-01T10:15:04;2.67;68.10
68609;SHT31;55581;46.718;7.690;2023-03-01T10:20:25;2.68;67.70
68609;SHT31;55581;46.718;7.690;2023-03-01T10:22:51;2.65;66.85
68609;SHT31;55581;46.718;7.690;2023-03-01T10:28:12;2.64;67.91
68609;SHT31;55581;46.718;7.690;2023-03-01T10:30:39;2.64;67.52
68609;SHT31;55581;46.718;7.690;2023-03-01T10:33:26;2.64;66.87
68609;SHT31;55581;46.718;7.690;2023-03-01T10:35:52;2.65;66.96
68609;SHT31;55581;46.718;7.690;2023-03-01T10:38:21;2.65;66.95
68609;SHT31;55581;46.718;7.690;2023-03-01T10:40:58;2.71;67.48
68609;SHT31;55581;46.718;7.690;2023-03-01T10:43:25;2.73;67.32
68609;SHT31;55581;46.718;7.690;2023-03-01T10:45:52;2.83;67.78
68609;SHT31;55581;46.718;7.690;2023-03-01T10:48:20;2.91;67.53
68609;SHT31;55581;46.718;7.690;2023-03-01T10:50:50;2.99;66.62
68609;SHT31;55581;46.718;7.690;2023-03-01T10:56:12;3.08;66.84
68609;SHT31;55581;46.718;7.690;2023-03-01T11:04:12;2.96;64.98
68609;SHT31;55581;46.718;7.690;2023-03-01T11:06:39;2.92;65.90
68609;SHT31;55581;46.718;7.690;2023-03-01T11:09:15;2.99;65.84
68609;SHT31;55581;46.718;7.690;2023-03-01T11:11:41;2.87;65.55
68609;SHT31;55581;46.718;7.690;2023-03-01T11:14:24;3.02;65.68
68609;SHT31;55581;46.718;7.690;2023-03-01T11:17:31;3.08;65.85
68609;SHT31;55581;46.718;7.690;2023-03-01T11:20:20;3.19;66.07
68609;SHT31;55581;46.718;7.690;2023-03-01T11:22:56;3.16;65.69
68609;SHT31;55581;46.718;7.690;2023-03-01T11:25:31;3.15;65.16
68609;SHT31;55581;46.718;7.690;2023-03-01T11:27:58;3.19;65.65
68609;SHT31;55581;46.718;7.690;2023-03-01T11:30:32;3.11;65.73
68609;SHT31;55581;46.718;7.690;2023-03-01T11:35:36;3.29;65.82
68609;SHT31;55581;46.718;7.690;2023-03-01T11:38:24;3.32;65.04
68609;SHT31;55581;46.718;7.690;2023-03-01T11:41:10;3.37;64.31
68609;SHT31;55581;46.718;7.690;2023-03-01T11:46:36;3.60;64.74
68609;SHT31;55581;46.718;7.690;2023-03-01T11:52:02;3.67;63.30
68609;SHT31;55581;46.718;7.690;2023-03-01T12:08:26;3.81;63.14
68609;SHT31;55581;46.718;7.690;2023-03-01T12:19:04;3.95;62.98
68609;SHT31;55581;46.718;7.690;2023-03-01T12:30:26;4.34;62.22
68609;SHT31;55581;46.718;7.690;2023-03-01T12:36:10;4.42;61.56
68609;SHT31;55581;46.718;7.690;2023-03-01T12:44:28;4.44;61.60
68609;SHT31;55581;46.718;7.690;2023-03-01T12:50:20;4.74;58.97
68609;SHT31;55581;46.718;7.690;2023-03-01T12:52:55;4.64;59.75
68609;SHT31;55581;46.718;7.690;2023-03-01T12:55:34;4.84;59.61
68609;SHT31;55581;46.718;7.690;2023-03-01T12:59:06;4.91;60.58
68609;SHT31;55581;46.718;7.690;2023-03-01T13:11:58;4.95;58.74
68609;SHT31;55581;46.718;7.690;2023-03-01T13:16:51;5.01;59.53
68609;SHT31;55581;46.718;7.690;2023-03-01T13:21:46;4.98;58.95
68609;SHT31;55581;46.718;7.690;2023-03-01T13:24:33;4.89;59.73
68609;SHT31;55581;46.718;7.690;2023-03-01T13:29:53;4.82;59.87
68609;SHT31;55581;46.718;7.690;2023-03-01T13:34:51;5.08;60.08
68609;SHT31;55581;46.718;7.690;2023-03-01T13:37:34;4.95;58.97
68609;SHT31;55581;46.718;7.690;2023-03-01T13:42:43;4.64;59.41
68609;SHT31;55581;46.718;7.690;2023-03-01T13:45:39;4.63;61.13
68609;SHT31;55581;46.718;7.690;2023-03-01T13:48:11;4.74;60.27
68609;SHT31;55581;46.718;7.690;2023-03-01T13:50:48;4.89;59.46
68609;SHT31;55581;46.718;7.690;2023-03-01T13:53:20;4.87;59.03
68609;SHT31;55581;46.718;7.690;2023-03-01T13:55:56;4.84;59.90
68609;SHT31;55581;46.718;7.690;2023-03-01T13:58:31;4.72;60.22
68609;SHT31;55581;46.718;7.690;2023-03-01T14:03:26;4.44;60.01
68609;SHT31;55581;46.718;7.690;2023-03-01T14:06:15;4.43;59.84
68609;SHT31;55581;46.718;7.690;2023-03-01T14:08:43;4.43;60.34
68609;SHT31;55581;46.718;7.690;2023-03-01T14:11:33;4.52;61.18
68609;SHT31;55581;46.718;7.690;2023-03-01T14:14:34;4.68;60.80
68609;SHT31;55581;46.718;7.690;2023-03-01T14:19:38;5.04;60.31
68609;SHT31;55581;46.718;7.690;2023-03-01T14:25:05;5.15;59.03
68609;SHT31;55581;46.718;7.690;2023-03-01T14:27:38;5.08;59.22
68609;SHT31;55581;46.718;7.690;2023-03-01T14:30:19;5.22;58.18
68609;SHT31;55581;46.718;7.690;2023-03-01T14:33:01;5.01;59.66
68609;SHT31;55581;46.718;7.690;2023-03-01T14:35:30;4.96;59.26
68609;SHT31;55581;46.718;7.690;2023-03-01T14:37:56;4.93;59.70
68609;SHT31;55581;46.718;7.690;2023-03-01T14:40:26;4.95;60.06
68609;SHT31;55581;46.718;7.690;2023-03-01T14:42:57;5.04;60.92
68609;SHT31;55581;46.718;7.690;2023-03-01T14:45:25;5.12;59.80
68609;SHT31;55581;46.718;7.690;2023-03-01T14:47:51;5.07;60.49
68609;SHT31;55581;46.718;7.690;2023-03-01T14:53:34;4.78;61.74
68609;SHT31;55581;46.718;7.690;2023-03-01T14:56:02;4.80;61.32
68609;SHT31;55581;46.718;7.690;2023-03-01T14:58:27;4.53;61.69
68609;SHT31;55581;46.718;7.690;2023-03-01T15:00:57;4.43;62.68
68609;SHT31;55581;46.718;7.690;2023-03-01T15:05:56;4.58;62.75
68609;SHT31;55581;46.718;7.690;2023-03-01T15:08:26;4.77;61.97
68609;SHT31;55581;46.718;7.690;2023-03-01T15:13:38;4.39;63.40
68609;SHT31;55581;46.718;7.690;2023-03-01T15:16:07;4.42;63.17
68609;SHT31;55581;46.718;7.690;2023-03-01T15:18:35;4.33;64.12
68609;SHT31;55581;46.718;7.690;2023-03-01T15:21:13;4.36;63.85
68609;SHT31;55581;46.718;7.690;2023-03-01T15:23:39;4.26;63.21
68609;SHT31;55581;46.718;7.690;2023-03-01T15:26:05;4.39;63.54
68609;SHT31;55581;46.718;7.690;2023-03-01T15:28:42;4.39;63.72
68609;SHT31;55581;46.718;7.690;2023-03-01T15:31:20;4.25;64.44
68609;SHT31;55581;46.718;7.690;2023-03-01T15:33:46;4.32;64.50
68609;SHT31;55581;46.718;7.690;2023-03-01T15:38:56;4.23;64.89
68609;SHT31;55581;46.718;7.690;2023-03-01T15:41:28;4.03;65.48
68609;SHT31;55581;46.718;7.690;2023-03-01T15:43:57;3.92;65.57
68609;SHT31;55581;46.718;7.690;2023-03-01T15:46:34;3.94;66.01
68609;SHT31;55581;46.718;7.690;2023-03-01T15:51:53;3.97;66.43
68609;SHT31;55581;46.718;7.690;2023-03-01T15:54:22;4.01;65.33
68609;SHT31;55581;46.718;7.690;2023-03-01T15:56:49;3.89;66.16
68609;SHT31;55581;46.718;7.690;2023-03-01T15:59:14;3.88;65.75
68609;SHT31;55581;46.718;7.690;2023-03-01T16:01:43;3.79;66.29
68609;SHT31;55581;46.718;7.690;2023-03-01T16:04:15;3.87;66.47
68609;SHT31;55581;46.718;7.690;2023-03-01T16:06:52;3.95;66.27
68609;SHT31;55581;46.718;7.690;2023-03-01T16:09:22;4.01;66.02
68609;SHT31;55581;46.718;7.690;2023-03-01T16:11:48;3.85;66.10
68609;SHT31;55581;46.718;7.690;2023-03-01T16:14:14;3.74;66.82
68609;SHT31;55581;46.718;7.690;2023-03-01T16:16:40;3.82;66.32
68609;SHT31;55581;46.718;7.690;2023-03-01T16:19:05;3.82;66.96
68609;SHT31;55581;46.718;7.690;2023-03-01T16:21:31;3.77;67.01
68609;SHT31;55581;46.718;7.690;2023-03-01T16:23:56;3.73;67.10
68609;SHT31;55581;46.718;7.690;2023-03-01T16:26:21;3.71;67.11
68609;SHT31;55581;46.718;7.690;2023-03-01T16:28:47;3.53;67.78
68609;SHT31;55581;46.718;7.690;2023-03-01T16:31:17;3.44;68.01
68609;SHT31;55581;46.718;7.690;2023-03-01T16:33:43;3.44;68.26
68609;SHT31;55581;46.718;7.690;2023-03-01T16:36:15;3.42;68.17
68609;SHT31;55581;46.718;7.690;2023-03-01T16:38:41;3.46;67.99
68609;SHT31;55581;46.718;7.690;2023-03-01T16:41:11;3.43;68.42
68609;SHT31;55581;46.718;7.690;2023-03-01T16:43:37;3.49;69.23
68609;SHT31;55581;46.718;7.690;2023-03-01T16:46:10;3.49;68.89
68609;SHT31;55581;46.718;7.690;2023-03-01T16:48:35;3.56;68.40
68609;SHT31;55581;46.718;7.690;2023-03-01T16:51:01;3.56;68.74
68609;SHT31;55581;46.718;7.690;2023-03-01T16:53:29;3.47;69.02
68609;SHT31;55581;46.718;7.690;2023-03-01T16:55:56;3.50;68.79
68609;SHT31;55581;46.718;7.690;2023-03-01T16:58:22;3.50;68.93
68609;SHT31;55581;46.718;7.690;2023-03-01T17:00:52;3.47;69.29
68609;SHT31;55581;46.718;7.690;2023-03-01T17:03:23;3.47;68.64
68609;SHT31;55581;46.718;7.690;2023-03-01T17:05:49;3.30;69.36
68609;SHT31;55581;46.718;7.690;2023-03-01T17:08:20;3.37;69.51
68609;SHT31;55581;46.718;7.690;2023-03-01T17:10:45;3.27;69.98
68609;SHT31;55581;46.718;7.690;2023-03-01T17:13:11;3.20;69.79
68609;SHT31;55581;46.718;7.690;2023-03-01T17:15:40;3.20;69.94
68609;SHT31;55581;46.718;7.690;2023-03-01T17:18:07;3.22;69.65
68609;SHT31;55581;46.718;7.690;2023-03-01T17:20:32;3.09;69.48
68609;SHT31;55581;46.718;7.690;2023-03-01T17:23:03;3.02;70.36
68609;SHT31;55581;46.718;7.690;2023-03-01T17:25:28;3.13;70.10
68609;SHT31;55581;46.718;7.690;2023-03-01T17:27:56;3.13;70.12
68609;SHT31;55581;46.718;7.690;2023-03-01T17:30:21;3.13;70.16
68609;SHT31;55581;46.718;7.690;2023-03-01T17:32:47;3.15;70.03
68609;SHT31;55581;46.718;7.690;2023-03-01T17:35:13;3.09;69.41
68609;SHT31;55581;46.718;7.690;2023-03-01T17:37:38;3.08;70.19
68609;SHT31;55581;46.718;7.690;2023-03-01T17:40:05;3.05;70.04
68609;SHT31;55581;46.718;7.690;2023-03-01T17:42:31;3.09;70.33
68609;SHT31;55581;46.718;7.690;2023-03-01T17:44:57;3.04;70.12
68609;SHT31;55581;46.718;7.690;2023-03-01T17:47:27;2.99;70.71
68609;SHT31;55581;46.718;7.690;2023-03-01T17:49:55;2.98;71.76
68609;SHT31;55581;46.718;7.690;2023-03-01T17:52:20;2.98;71.75
68609;SHT31;55581;46.718;7.690;2023-03-01T17:54:48;2.98;71.87
68609;SHT31;55581;46.718;7.690;2023-03-01T17:57:13;2.91;72.60
68609;SHT31;55581;46.718;7.690;2023-03-01T17:59:39;2.85;72.25
68609;SHT31;55581;46.718;7.690;2023-03-01T18:02:04;2.85;72.50
68609;SHT31;55581;46.718;7.690;2023-03-01T18:04:30;2.91;71.85
68609;SHT31;55581;46.718;7.690;2023-03-01T18:06:56;2.84;72.65